sensor_id;sensor_type;location;lat;lon;timestamp;P1;durP1;ratioP1;P2;durP2;ratioP2
23228;SDS011;11783;50.350;6.576;2023-02-13T00:01:48;27.83;;;14.57;;
23228;SDS011;11783;50.350;6.576;2023-02-13T00:04:14;23.38;;;14.15;;
23228;SDS011;11783;50.350;6.576;2023-02-13T00:06:39;23.08;;;13.82;;
23228;SDS011;11783;50.350;6.576;2023-02-13T00:09:04;26.88;;;14.75;;
23228;SDS011;11783;50.350;6.576;2023-02-13T00:11:30;26.55;;;15.40;;
23228;SDS011;11783;50.350;6.576;2023-02-13T00:13:55;23.52;;;14.80;;
23228;SDS011;11783;50.350;6.576;2023-02-13T00:16:22;25.35;;;15.63;;
23228;SDS011;11783;50.350;6.576;2023-02-13T00:18:47;25.25;;;13.90;;
23228;SDS011;11783;50.350;6.576;2023-02-13T00:21:13;24.73;;;13.32;;
23228;SDS011;11783;50.350;6.576;2023-02-13T00:23:38;23.42;;;14.07;;
23228;SDS011;11783;50.350;6.576;2023-02-13T00:26:05;24.67;;;14.27;;
23228;SDS011;11783;50.350;6.576;2023-02-13T00:28:32;25.60;;;14.00;;
23228;SDS011;11783;50.350;6.576;2023-02-13T00:31:02;22.27;;;13.65;;
23228;SDS011;11783;50.350;6.576;2023-02-13T00:33:32;24.65;;;14.82;;
23228;SDS011;11783;50.350;6.576;2023-02-13T00:36:04;23.58;;;14.68;;
23228;SDS011;11783;50.350;6.576;2023-02-13T00:38:50;23.58;;;14.05;;
23228;SDS011;11783;50.350;6.576;2023-02-13T00:41:21;18.40;;;10.77;;
23228;SDS011;11783;50.350;6.576;2023-02-13T00:43:47;26.17;;;14.68;;
23228;SDS011;11783;50.350;6.576;2023-02-13T00:46:13;22.95;;;13.85;;
23228;SDS011;11783;50.350;6.576;2023-02-13T00:48:39;26.17;;;15.13;;
23228;SDS011;11783;50.350;6.576;2023-02-13T00:51:07;28.27;;;16.13;;
23228;SDS011;11783;50.350;6.576;2023-02-13T00:53:33;27.75;;;15.63;;
23228;SDS011;11783;50.350;6.576;2023-02-13T00:56:00;26.77;;;15.40;;
23228;SDS011;11783;50.350;6.576;2023-02-13T00:58:28;28.38;;;15.48;;
23228;SDS011;11783;50.350;6.576;2023-02-13T01:00:53;29.20;;;16.02;;
23228;SDS011;11783;50.350;6.576;2023-02-13T01:03:20;29.58;;;16.63;;
23228;SDS011;11783;50.350;6.576;2023-02-13T01:05:46;29.42;;;16.02;;
23228;SDS011;11783;50.350;6.576;2023-02-13T01:08:13;29.30;;;17.33;;
23228;SDS011;11783;50.350;6.576;2023-02-13T01:10:40;31.13;;;16.35;;
23228;SDS011;11783;50.350;6.576;2023-02-13T01:13:06;28.35;;;15.40;;
23228;SDS011;11783;50.350;6.576;2023-02-13T01:15:32;28.10;;;15.98;;
23228;SDS011;11783;50.350;6.576;2023-02-13T01:17:58;28.90;;;15.77;;
23228;SDS011;11783;50.350;6.576;2023-02-13T01:20:25;29.05;;;16.13;;
23228;SDS011;11783;50.350;6.576;2023-02-13T01:22:51;28.83;;;14.90;;
23228;SDS011;11783;50.350;6.576;2023-02-13T01:25:16;28.27;;;15.55;;
23228;SDS011;11783;50.350;6.576;2023-02-13T01:27:42;28.33;;;15.40;;
23228;SDS011;11783;50.350;6.576;2023-02-13T01:30:08;25.85;;;14.80;;
23228;SDS011;11783;50.350;6.576;2023-02-13T01:32:38;28.00;;;15.15;;
23228;SDS011;11783;50.350;6.576;2023-02-13T01:35:04;28.55;;;15.88;;
23228;SDS011;11783;50.350;6.576;2023-02-13T01:37:30;26.95;;;15.20;;
23228;SDS011;11783;50.350;6.576;2023-02-13T01:39:55;25.00;;;14.50;;
23228;SDS011;11783;50.350;6.576;2023-02-13T01:42:23;26.60;;;14.68;;
23228;SDS011;11783;50.350;6.576;2023-02-13T01:44:54;30.23;;;15.77;;
23228;SDS011;11783;50.350;6.576;2023-02-13T01:50:04;27.42;;;15.07;;
23228;SDS011;11783;50.350;6.576;2023-02-13T01:52:32;29.00;;;15.15;;
23228;SDS011;11783;50.350;6.576;2023-02-13T01:54:59;29.85;;;15.32;;
23228;SDS011;11783;50.350;6.576;2023-02-13T01:57:25;27.13;;;14.55;;
23228;SDS011;11783;50.350;6.576;2023-02-13T01:59:59;25.50;;;14.55;;
23228;SDS011;11783;50.350;6.576;2023-02-13T02:02:30;28.00;;;15.02;;
23228;SDS011;11783;50.350;6.576;2023-02-13T02:04:59;27.08;;;14.95;;
23228;SDS011;11783;50.350;6.576;2023-02-13T02:07:26;26.42;;;14.52;;
23228;SDS011;11783;50.350;6.576;2023-02-13T02:09:57;27.45;;;14.57;;
23228;SDS011;11783;50.350;6.576;2023-02-13T02:12:36;26.08;;;13.93;;
23228;SDS011;11783;50.350;6.576;2023-02-13T02:15:07;28.63;;;14.48;;
23228;SDS011;11783;50.350;6.576;2023-02-13T02:17:33;23.85;;;13.45;;
23228;SDS011;11783;50.350;6.576;2023-02-13T02:33:31;24.77;;;13.73;;
23228;SDS011;11783;50.350;6.576;2023-02-13T02:38:39;24.75;;;13.30;;
23228;SDS011;11783;50.350;6.576;2023-02-13T02:44:30;24.67;;;13.52;;
23228;SDS011;11783;50.350;6.576;2023-02-13T02:50:13;23.60;;;13.27;;
23228;SDS011;11783;50.350;6.576;2023-02-13T02:56:13;22.63;;;12.70;;
23228;SDS011;11783;50.350;6.576;2023-02-13T02:58:49;22.35;;;11.63;;
23228;SDS011;11783;50.350;6.576;2023-02-13T03:01:38;23.40;;;12.85;;
23228;SDS011;11783;50.350;6.576;2023-02-13T03:07:25;25.05;;;13.40;;
23228;SDS011;11783;50.350;6.576;2023-02-13T03:09:58;21.85;;;12.65;;
23228;SDS011;11783;50.350;6.576;2023-02-13T03:12:51;20.83;;;11.80;;
23228;SDS011;11783;50.350;6.576;2023-02-13T03:15:40;22.13;;;12.63;;
23228;SDS011;11783;50.350;6.576;2023-02-13T03:18:27;22.38;;;11.98;;
23228;SDS011;11783;50.350;6.576;2023-02-13T03:21:18;22.10;;;12.18;;
23228;SDS011;11783;50.350;6.576;2023-02-13T03:24:32;20.88;;;11.18;;
23228;SDS011;11783;50.350;6.576;2023-02-13T03:27:45;26.05;;;13.32;;
23228;SDS011;11783;50.350;6.576;2023-02-13T03:30:39;20.77;;;11.07;;
23228;SDS011;11783;50.350;6.576;2023-02-13T03:36:33;19.92;;;11.30;;
23228;SDS011;11783;50.350;6.576;2023-02-13T03:45:02;19.92;;;11.55;;
23228;SDS011;11783;50.350;6.576;2023-02-13T03:48:13;21.73;;;11.82;;
23228;SDS011;11783;50.350;6.576;2023-02-13T03:51:15;14.73;;;8.10;;
23228;SDS011;11783;50.350;6.576;2023-02-13T03:53:46;22.65;;;11.60;;
23228;SDS011;11783;50.350;6.576;2023-02-13T03:59:04;17.15;;;10.02;;
23228;SDS011;11783;50.350;6.576;2023-02-13T04:01:43;20.42;;;11.75;;
23228;SDS011;11783;50.350;6.576;2023-02-13T04:04:20;20.52;;;11.45;;
23228;SDS011;11783;50.350;6.576;2023-02-13T04:07:05;19.33;;;11.40;;
23228;SDS011;11783;50.350;6.576;2023-02-13T04:09:35;18.98;;;10.95;;
23228;SDS011;11783;50.350;6.576;2023-02-13T04:17:22;18.00;;;10.57;;
23228;SDS011;11783;50.350;6.576;2023-02-13T04:19:54;17.35;;;10.70;;
23228;SDS011;11783;50.350;6.576;2023-02-13T04:22:22;20.08;;;10.95;;
23228;SDS011;11783;50.350;6.576;2023-02-13T04:24:47;25.45;;;10.38;;
23228;SDS011;11783;50.350;6.576;2023-02-13T04:27:15;19.02;;;10.80;;
23228;SDS011;11783;50.350;6.576;2023-02-13T04:29:41;18.25;;;10.60;;
23228;SDS011;11783;50.350;6.576;2023-02-13T04:32:11;20.77;;;11.35;;
23228;SDS011;11783;50.350;6.576;2023-02-13T04:34:38;15.32;;;8.68;;
23228;SDS011;11783;50.350;6.576;2023-02-13T04:37:03;19.10;;;10.52;;
23228;SDS011;11783;50.350;6.576;2023-02-13T04:39:29;20.23;;;11.02;;
23228;SDS011;11783;50.350;6.576;2023-02-13T04:41:54;18.63;;;10.73;;
23228;SDS011;11783;50.350;6.576;2023-02-13T04:44:19;18.65;;;10.23;;
23228;SDS011;11783;50.350;6.576;2023-02-13T04:46:45;19.80;;;10.77;;
23228;SDS011;11783;50.350;6.576;2023-02-13T04:49:10;18.02;;;10.77;;
23228;SDS011;11783;50.350;6.576;2023-02-13T04:51:35;19.38;;;11.02;;
23228;SDS011;11783;50.350;6.576;2023-02-13T04:54:01;19.48;;;10.70;;
23228;SDS011;11783;50.350;6.576;2023-02-13T04:56:31;19.15;;;11.20;;
23228;SDS011;11783;50.350;6.576;2023-02-13T04:58:57;20.95;;;11.65;;
23228;SDS011;11783;50.350;6.576;2023-02-13T05:01:22;22.63;;;11.82;;
23228;SDS011;11783;50.350;6.576;2023-02-13T05:03:50;21.02;;;11.20;;
23228;SDS011;11783;50.350;6.576;2023-02-13T05:06:15;20.42;;;10.90;;
23228;SDS011;11783;50.350;6.576;2023-02-13T05:08:45;21.83;;;11.75;;
23228;SDS011;11783;50.350;6.576;2023-02-13T05:11:11;21.38;;;11.68;;
23228;SDS011;11783;50.350;6.576;2023-02-13T05:13:36;20.67;;;10.75;;
23228;SDS011;11783;50.350;6.576;2023-02-13T05:16:01;20.90;;;11.63;;
23228;SDS011;11783;50.350;6.576;2023-02-13T05:18:27;22.80;;;11.35;;
23228;SDS011;11783;50.350;6.576;2023-02-13T05:20:52;22.85;;;11.98;;
23228;SDS011;11783;50.350;6.576;2023-02-13T05:23:39;20.15;;;10.88;;
23228;SDS011;11783;50.350;6.576;2023-02-13T05:26:05;20.38;;;10.18;;
23228;SDS011;11783;50.350;6.576;2023-02-13T05:28:30;19.60;;;10.63;;
23228;SDS011;11783;50.350;6.576;2023-02-13T05:31:14;18.83;;;10.20;;
23228;SDS011;11783;50.350;6.576;2023-02-13T05:33:39;21.38;;;11.55;;
23228;SDS011;11783;50.350;6.576;2023-02-13T05:36:05;21.77;;;11.30;;
23228;SDS011;11783;50.350;6.576;2023-02-13T05:38:31;21.15;;;11.25;;
23228;SDS011;11783;50.350;6.576;2023-02-13T05:40:59;18.35;;;9.75;;
23228;SDS011;11783;50.350;6.576;2023-02-13T05:43:25;16.90;;;9.55;;
23228;SDS011;11783;50.350;6.576;2023-02-13T05:45:59;16.63;;;9.25;;
23228;SDS011;11783;50.350;6.576;2023-02-13T05:48:29;17.45;;;9.68;;
23228;SDS011;11783;50.350;6.576;2023-02-13T05:50:57;17.63;;;9.77;;
23228;SDS011;11783;50.350;6.576;2023-02-13T05:53:23;18.38;;;10.13;;
23228;SDS011;11783;50.350;6.576;2023-02-13T05:55:48;17.48;;;9.95;;
23228;SDS011;11783;50.350;6.576;2023-02-13T05:58:16;16.65;;;9.50;;
23228;SDS011;11783;50.350;6.576;2023-02-13T06:00:42;17.70;;;9.88;;
23228;SDS011;11783;50.350;6.576;2023-02-13T06:03:11;18.33;;;10.45;;
23228;SDS011;11783;50.350;6.576;2023-02-13T06:05:36;17.92;;;9.45;;
23228;SDS011;11783;50.350;6.576;2023-02-13T06:08:02;18.80;;;10.00;;
23228;SDS011;11783;50.350;6.576;2023-02-13T06:10:28;18.33;;;10.95;;
23228;SDS011;11783;50.350;6.576;2023-02-13T06:12:53;18.73;;;10.52;;
23228;SDS011;11783;50.350;6.576;2023-02-13T06:15:21;17.30;;;9.75;;
23228;SDS011;11783;50.350;6.576;2023-02-13T06:17:49;18.55;;;9.88;;
23228;SDS011;11783;50.350;6.576;2023-02-13T06:20:14;21.23;;;11.10;;
23228;SDS011;11783;50.350;6.576;2023-02-13T06:22:40;22.45;;;11.65;;
23228;SDS011;11783;50.350;6.576;2023-02-13T06:25:05;20.45;;;10.73;;
23228;SDS011;11783;50.350;6.576;2023-02-13T06:27:30;21.25;;;11.57;;
23228;SDS011;11783;50.350;6.576;2023-02-13T06:29:56;20.50;;;11.38;;
23228;SDS011;11783;50.350;6.576;2023-02-13T06:32:21;19.85;;;10.60;;
23228;SDS011;11783;50.350;6.576;2023-02-13T06:34:46;22.52;;;11.07;;
23228;SDS011;11783;50.350;6.576;2023-02-13T06:37:12;19.70;;;11.57;;
23228;SDS011;11783;50.350;6.576;2023-02-13T06:39:40;19.60;;;10.93;;
23228;SDS011;11783;50.350;6.576;2023-02-13T06:42:06;21.25;;;11.07;;
23228;SDS011;11783;50.350;6.576;2023-02-13T06:44:32;20.50;;;11.35;;
23228;SDS011;11783;50.350;6.576;2023-02-13T06:46:57;19.27;;;11.02;;
23228;SDS011;11783;50.350;6.576;2023-02-13T06:49:25;21.13;;;11.57;;
23228;SDS011;11783;50.350;6.576;2023-02-13T06:51:50;19.70;;;11.35;;
23228;SDS011;11783;50.350;6.576;2023-02-13T06:54:18;20.25;;;11.88;;
23228;SDS011;11783;50.350;6.576;2023-02-13T06:56:47;22.05;;;12.18;;
23228;SDS011;11783;50.350;6.576;2023-02-13T06:59:12;20.23;;;11.45;;
23228;SDS011;11783;50.350;6.576;2023-02-13T07:01:38;20.92;;;11.30;;
23228;SDS011;11783;50.350;6.576;2023-02-13T07:04:03;20.95;;;11.23;;
23228;SDS011;11783;50.350;6.576;2023-02-13T07:06:31;22.60;;;11.70;;
23228;SDS011;11783;50.350;6.576;2023-02-13T07:08:56;23.55;;;11.63;;
23228;SDS011;11783;50.350;6.576;2023-02-13T07:11:22;20.48;;;10.75;;
23228;SDS011;11783;50.350;6.576;2023-02-13T07:13:51;19.63;;;11.07;;
23228;SDS011;11783;50.350;6.576;2023-02-13T07:16:20;20.27;;;10.73;;
23228;SDS011;11783;50.350;6.576;2023-02-13T07:18:45;19.63;;;10.65;;
23228;SDS011;11783;50.350;6.576;2023-02-13T07:21:10;20.15;;;11.40;;
23228;SDS011;11783;50.350;6.576;2023-02-13T07:23:36;20.73;;;10.50;;
23228;SDS011;11783;50.350;6.576;2023-02-13T07:26:01;19.95;;;10.18;;
23228;SDS011;11783;50.350;6.576;2023-02-13T07:28:27;18.17;;;10.07;;
23228;SDS011;11783;50.350;6.576;2023-02-13T07:30:53;18.70;;;10.68;;
23228;SDS011;11783;50.350;6.576;2023-02-13T07:33:18;19.23;;;10.82;;
23228;SDS011;11783;50.350;6.576;2023-02-13T07:35:48;20.50;;;11.80;;
23228;SDS011;11783;50.350;6.576;2023-02-13T07:38:15;16.00;;;8.80;;
23228;SDS011;11783;50.350;6.576;2023-02-13T07:40:41;20.58;;;11.02;;
23228;SDS011;11783;50.350;6.576;2023-02-13T07:43:07;25.25;;;12.27;;
23228;SDS011;11783;50.350;6.576;2023-02-13T07:45:32;25.73;;;12.35;;
23228;SDS011;11783;50.350;6.576;2023-02-13T07:47:57;24.98;;;12.50;;
23228;SDS011;11783;50.350;6.576;2023-02-13T07:50:24;25.90;;;12.68;;
23228;SDS011;11783;50.350;6.576;2023-02-13T07:52:56;24.38;;;13.63;;
23228;SDS011;11783;50.350;6.576;2023-02-13T07:55:23;20.77;;;12.18;;
23228;SDS011;11783;50.350;6.576;2023-02-13T07:57:48;19.38;;;11.52;;
23228;SDS011;11783;50.350;6.576;2023-02-13T08:00:14;31.45;;;12.10;;
23228;SDS011;11783;50.350;6.576;2023-02-13T08:02:41;21.33;;;12.40;;
23228;SDS011;11783;50.350;6.576;2023-02-13T08:05:06;18.30;;;10.43;;
23228;SDS011;11783;50.350;6.576;2023-02-13T08:07:34;18.38;;;11.23;;
23228;SDS011;11783;50.350;6.576;2023-02-13T08:09:59;18.88;;;11.15;;
23228;SDS011;11783;50.350;6.576;2023-02-13T08:12:44;20.60;;;12.88;;
23228;SDS011;11783;50.350;6.576;2023-02-13T08:15:11;21.40;;;14.48;;
23228;SDS011;11783;50.350;6.576;2023-02-13T08:17:38;19.55;;;11.55;;
23228;SDS011;11783;50.350;6.576;2023-02-13T08:20:04;25.50;;;14.05;;
23228;SDS011;11783;50.350;6.576;2023-02-13T08:22:34;19.90;;;11.35;;
23228;SDS011;11783;50.350;6.576;2023-02-13T08:25:00;20.00;;;11.90;;
23228;SDS011;11783;50.350;6.576;2023-02-13T08:27:26;18.33;;;11.02;;
23228;SDS011;11783;50.350;6.576;2023-02-13T08:29:55;19.13;;;10.80;;
23228;SDS011;11783;50.350;6.576;2023-02-13T08:32:26;22.95;;;11.48;;
23228;SDS011;11783;50.350;6.576;2023-02-13T08:34:51;25.15;;;10.48;;
23228;SDS011;11783;50.350;6.576;2023-02-13T08:37:17;18.02;;;10.57;;
23228;SDS011;11783;50.350;6.576;2023-02-13T08:39:42;18.30;;;10.40;;
23228;SDS011;11783;50.350;6.576;2023-02-13T08:42:08;18.63;;;10.93;;
23228;SDS011;11783;50.350;6.576;2023-02-13T08:44:34;17.58;;;10.55;;
23228;SDS011;11783;50.350;6.576;2023-02-13T08:47:05;19.13;;;10.93;;
23228;SDS011;11783;50.350;6.576;2023-02-13T08:49:30;18.15;;;10.57;;
23228;SDS011;11783;50.350;6.576;2023-02-13T08:51:56;18.40;;;10.50;;
23228;SDS011;11783;50.350;6.576;2023-02-13T08:54:21;21.08;;;11.70;;
23228;SDS011;11783;50.350;6.576;2023-02-13T08:56:47;21.90;;;11.38;;
23228;SDS011;11783;50.350;6.576;2023-02-13T08:59:13;20.67;;;11.82;;
23228;SDS011;11783;50.350;6.576;2023-02-13T09:01:38;17.80;;;11.30;;
23228;SDS011;11783;50.350;6.576;2023-02-13T09:04:04;23.55;;;12.05;;
23228;SDS011;11783;50.350;6.576;2023-02-13T09:06:29;19.25;;;11.45;;
23228;SDS011;11783;50.350;6.576;2023-02-13T09:08:55;18.75;;;10.95;;
23228;SDS011;11783;50.350;6.576;2023-02-13T09:11:23;22.20;;;12.57;;
23228;SDS011;11783;50.350;6.576;2023-02-13T09:13:51;21.83;;;11.57;;
23228;SDS011;11783;50.350;6.576;2023-02-13T09:16:18;24.98;;;13.32;;
23228;SDS011;11783;50.350;6.576;2023-02-13T09:18:45;23.13;;;13.60;;
23228;SDS011;11783;50.350;6.576;2023-02-13T09:21:12;21.77;;;12.35;;
23228;SDS011;11783;50.350;6.576;2023-02-13T09:23:38;26.83;;;14.85;;
23228;SDS011;11783;50.350;6.576;2023-02-13T09:26:09;25.30;;;13.50;;
23228;SDS011;11783;50.350;6.576;2023-02-13T09:28:36;25.23;;;13.52;;
23228;SDS011;11783;50.350;6.576;2023-02-13T09:33:37;22.55;;;13.25;;
23228;SDS011;11783;50.350;6.576;2023-02-13T09:36:06;20.02;;;12.30;;
23228;SDS011;11783;50.350;6.576;2023-02-13T09:38:33;23.33;;;13.65;;
23228;SDS011;11783;50.350;6.576;2023-02-13T09:41:04;23.17;;;12.98;;
23228;SDS011;11783;50.350;6.576;2023-02-13T09:43:54;23.33;;;13.32;;
23228;SDS011;11783;50.350;6.576;2023-02-13T09:46:24;23.55;;;14.43;;
23228;SDS011;11783;50.350;6.576;2023-02-13T09:48:55;23.40;;;14.07;;
23228;SDS011;11783;50.350;6.576;2023-02-13T09:51:26;20.90;;;13.10;;
23228;SDS011;11783;50.350;6.576;2023-02-13T09:53:57;22.42;;;12.88;;
23228;SDS011;11783;50.350;6.576;2023-02-13T10:08:30;18.48;;;11.65;;
23228;SDS011;11783;50.350;6.576;2023-02-13T10:16:21;17.05;;;10.38;;
23228;SDS011;11783;50.350;6.576;2023-02-13T10:19:02;17.58;;;10.65;;
23228;SDS011;11783;50.350;6.576;2023-02-13T10:21:37;16.27;;;9.88;;
23228;SDS011;11783;50.350;6.576;2023-02-13T10:24:35;19.98;;;11.13;;
23228;SDS011;11783;50.350;6.576;2023-02-13T10:27:12;17.73;;;10.50;;
23228;SDS011;11783;50.350;6.576;2023-02-13T10:29:44;16.85;;;10.27;;
23228;SDS011;11783;50.350;6.576;2023-02-13T10:35:25;15.35;;;9.70;;
23228;SDS011;11783;50.350;6.576;2023-02-13T10:37:54;13.10;;;7.67;;
23228;SDS011;11783;50.350;6.576;2023-02-13T10:40:22;15.07;;;8.95;;
23228;SDS011;11783;50.350;6.576;2023-02-13T10:43:14;15.05;;;9.07;;
23228;SDS011;11783;50.350;6.576;2023-02-13T11:04:17;12.80;;;8.10;;
23228;SDS011;11783;50.350;6.576;2023-02-13T11:06:59;12.73;;;7.93;;
23228;SDS011;11783;50.350;6.576;2023-02-13T11:09:26;13.73;;;7.82;;
23228;SDS011;11783;50.350;6.576;2023-02-13T11:11:52;14.05;;;8.00;;
23228;SDS011;11783;50.350;6.576;2023-02-13T11:14:19;13.20;;;8.23;;
23228;SDS011;11783;50.350;6.576;2023-02-13T11:17:00;12.98;;;8.23;;
23228;SDS011;11783;50.350;6.576;2023-02-13T11:19:33;12.70;;;7.40;;
23228;SDS011;11783;50.350;6.576;2023-02-13T11:22:03;13.10;;;7.60;;
23228;SDS011;11783;50.350;6.576;2023-02-13T11:24:32;12.63;;;7.43;;
23228;SDS011;11783;50.350;6.576;2023-02-13T11:26:59;11.73;;;7.25;;
23228;SDS011;11783;50.350;6.576;2023-02-13T11:29:33;12.00;;;7.10;;
23228;SDS011;11783;50.350;6.576;2023-02-13T11:34:40;9.65;;;6.03;;
23228;SDS011;11783;50.350;6.576;2023-02-13T11:37:12;11.15;;;6.38;;
23228;SDS011;11783;50.350;6.576;2023-02-13T11:39:41;10.10;;;6.22;;
23228;SDS011;11783;50.350;6.576;2023-02-13T11:42:24;9.60;;;5.60;;
23228;SDS011;11783;50.350;6.576;2023-02-13T11:44:51;10.38;;;6.35;;
23228;SDS011;11783;50.350;6.576;2023-02-13T11:47:33;9.05;;;5.53;;
23228;SDS011;11783;50.350;6.576;2023-02-13T11:49:59;9.10;;;5.53;;
23228;SDS011;11783;50.350;6.576;2023-02-13T11:52:31;10.38;;;5.85;;
23228;SDS011;11783;50.350;6.576;2023-02-13T11:55:04;9.30;;;5.07;;
23228;SDS011;11783;50.350;6.576;2023-02-13T11:57:54;8.82;;;5.43;;
23228;SDS011;11783;50.350;6.576;2023-02-13T12:03:02;9.55;;;5.85;;
23228;SDS011;11783;50.350;6.576;2023-02-13T12:08:41;9.10;;;5.10;;
23228;SDS011;11783;50.350;6.576;2023-02-13T12:11:28;6.82;;;4.40;;
23228;SDS011;11783;50.350;6.576;2023-02-13T12:13:58;9.80;;;5.25;;
23228;SDS011;11783;50.350;6.576;2023-02-13T12:16:34;8.95;;;4.35;;
23228;SDS011;11783;50.350;6.576;2023-02-13T12:19:11;7.10;;;3.47;;
23228;SDS011;11783;50.350;6.576;2023-02-13T12:27:18;6.40;;;3.67;;
23228;SDS011;11783;50.350;6.576;2023-02-13T12:32:56;5.70;;;3.45;;
23228;SDS011;11783;50.350;6.576;2023-02-13T12:56:13;5.10;;;2.55;;
23228;SDS011;11783;50.350;6.576;2023-02-13T12:59:06;4.60;;;2.78;;
23228;SDS011;11783;50.350;6.576;2023-02-13T13:07:24;5.85;;;3.03;;
23228;SDS011;11783;50.350;6.576;2023-02-13T13:23:45;5.40;;;3.22;;
23228;SDS011;11783;50.350;6.576;2023-02-13T13:26:24;5.95;;;3.15;;
23228;SDS011;11783;50.350;6.576;2023-02-13T13:28:56;5.90;;;2.92;;
23228;SDS011;11783;50.350;6.576;2023-02-13T13:31:23;4.20;;;2.50;;
23228;SDS011;11783;50.350;6.576;2023-02-13T13:33:52;4.15;;;2.47;;
23228;SDS011;11783;50.350;6.576;2023-02-13T13:36:36;3.93;;;2.07;;
23228;SDS011;11783;50.350;6.576;2023-02-13T13:50:28;5.72;;;2.50;;
23228;SDS011;11783;50.350;6.576;2023-02-13T14:03:39;3.67;;;2.10;;
23228;SDS011;11783;50.350;6.576;2023-02-13T14:06:09;3.45;;;1.95;;
23228;SDS011;11783;50.350;6.576;2023-02-13T14:11:04;3.63;;;1.75;;
23228;SDS011;11783;50.350;6.576;2023-02-13T14:13:48;2.83;;;1.30;;
23228;SDS011;11783;50.350;6.576;2023-02-13T14:16:19;4.75;;;1.88;;
23228;SDS011;11783;50.350;6.576;2023-02-13T14:19:02;3.75;;;1.35;;
23228;SDS011;11783;50.350;6.576;2023-02-13T14:21:28;3.25;;;1.60;;
23228;SDS011;11783;50.350;6.576;2023-02-13T14:23:54;3.40;;;1.55;;
23228;SDS011;11783;50.350;6.576;2023-02-13T14:26:31;3.72;;;1.30;;
23228;SDS011;11783;50.350;6.576;2023-02-13T14:29:02;3.70;;;1.42;;
23228;SDS011;11783;50.350;6.576;2023-02-13T14:32:45;2.78;;;1.27;;
23228;SDS011;11783;50.350;6.576;2023-02-13T14:34:41;2.83;;;1.13;;
23228;SDS011;11783;50.350;6.576;2023-02-13T14:37:23;3.30;;;1.30;;
23228;SDS011;11783;50.350;6.576;2023-02-13T14:40:13;2.13;;;1.10;;
23228;SDS011;11783;50.350;6.576;2023-02-13T14:45:56;2.95;;;0.93;;
23228;SDS011;11783;50.350;6.576;2023-02-13T14:48:35;3.03;;;1.20;;
23228;SDS011;11783;50.350;6.576;2023-02-13T14:51:05;3.17;;;1.10;;
23228;SDS011;11783;50.350;6.576;2023-02-13T14:53:51;2.63;;;1.00;;
23228;SDS011;11783;50.350;6.576;2023-02-13T14:56:19;2.53;;;1.30;;
23228;SDS011;11783;50.350;6.576;2023-02-13T14:59:09;2.78;;;1.10;;
23228;SDS011;11783;50.350;6.576;2023-02-13T15:02:22;2.88;;;1.40;;
23228;SDS011;11783;50.350;6.576;2023-02-13T15:05:04;2.80;;;1.50;;
23228;SDS011;11783;50.350;6.576;2023-02-13T15:07:37;4.82;;;1.60;;
23228;SDS011;11783;50.350;6.576;2023-02-13T15:10:32;3.67;;;1.70;;
23228;SDS011;11783;50.350;6.576;2023-02-13T15:13:11;6.55;;;1.63;;
23228;SDS011;11783;50.350;6.576;2023-02-13T15:15:42;4.05;;;1.50;;
23228;SDS011;11783;50.350;6.576;2023-02-13T15:18:10;2.35;;;1.40;;
23228;SDS011;11783;50.350;6.576;2023-02-13T15:20:43;3.47;;;1.50;;
23228;SDS011;11783;50.350;6.576;2023-02-13T15:23:17;3.45;;;1.80;;
23228;SDS011;11783;50.350;6.576;2023-02-13T15:25:46;2.97;;;1.48;;
23228;SDS011;11783;50.350;6.576;2023-02-13T15:28:20;3.85;;;1.60;;
23228;SDS011;11783;50.350;6.576;2023-02-13T15:30:52;5.18;;;1.80;;
23228;SDS011;11783;50.350;6.576;2023-02-13T15:33:23;2.92;;;1.67;;
23228;SDS011;11783;50.350;6.576;2023-02-13T15:36:33;4.80;;;1.80;;
23228;SDS011;11783;50.350;6.576;2023-02-13T15:38:43;3.10;;;1.50;;
23228;SDS011;11783;50.350;6.576;2023-02-13T15:41:14;3.85;;;1.60;;
23228;SDS011;11783;50.350;6.576;2023-02-13T15:43:41;4.60;;;2.00;;
23228;SDS011;11783;50.350;6.576;2023-02-13T15:46:19;5.05;;;2.00;;
23228;SDS011;11783;50.350;6.576;2023-02-13T15:48:48;4.45;;;1.92;;
23228;SDS011;11783;50.350;6.576;2023-02-13T15:51:22;5.00;;;2.33;;
23228;SDS011;11783;50.350;6.576;2023-02-13T15:53:53;3.25;;;1.67;;
23228;SDS011;11783;50.350;6.576;2023-02-13T15:56:19;4.70;;;2.20;;
23228;SDS011;11783;50.350;6.576;2023-02-13T15:58:46;4.05;;;2.22;;
23228;SDS011;11783;50.350;6.576;2023-02-13T16:01:13;5.25;;;2.00;;
23228;SDS011;11783;50.350;6.576;2023-02-13T16:03:41;3.58;;;2.08;;
23228;SDS011;11783;50.350;6.576;2023-02-13T16:06:12;5.45;;;2.20;;
23228;SDS011;11783;50.350;6.576;2023-02-13T16:16:27;3.75;;;2.28;;
23228;SDS011;11783;50.350;6.576;2023-02-13T16:18:55;5.25;;;2.80;;
23228;SDS011;11783;50.350;6.576;2023-02-13T16:21:21;4.78;;;2.70;;
23228;SDS011;11783;50.350;6.576;2023-02-13T16:23:51;7.63;;;2.83;;
23228;SDS011;11783;50.350;6.576;2023-02-13T16:28:46;6.18;;;2.92;;
23228;SDS011;11783;50.350;6.576;2023-02-13T16:31:14;5.75;;;2.95;;
23228;SDS011;11783;50.350;6.576;2023-02-13T16:33:42;5.10;;;3.22;;
23228;SDS011;11783;50.350;6.576;2023-02-13T16:41:00;5.78;;;3.08;;
23228;SDS011;11783;50.350;6.576;2023-02-13T16:46:12;5.03;;;3.00;;
23228;SDS011;11783;50.350;6.576;2023-02-13T16:54:45;5.45;;;3.05;;
23228;SDS011;11783;50.350;6.576;2023-02-13T17:02:32;7.65;;;3.03;;
23228;SDS011;11783;50.350;6.576;2023-02-13T17:12:45;7.75;;;2.92;;
23228;SDS011;11783;50.350;6.576;2023-02-13T17:15:12;6.50;;;2.60;;
23228;SDS011;11783;50.350;6.576;2023-02-13T17:17:39;5.18;;;2.50;;
23228;SDS011;11783;50.350;6.576;2023-02-13T17:20:06;5.05;;;2.60;;
23228;SDS011;11783;50.350;6.576;2023-02-13T17:25:08;5.97;;;2.72;;
23228;SDS011;11783;50.350;6.576;2023-02-13T17:27:41;6.88;;;2.38;;
23228;SDS011;11783;50.350;6.576;2023-02-13T17:30:07;7.60;;;2.80;;
23228;SDS011;11783;50.350;6.576;2023-02-13T17:32:37;6.00;;;2.65;;
23228;SDS011;11783;50.350;6.576;2023-02-13T17:35:02;5.10;;;2.42;;
23228;SDS011;11783;50.350;6.576;2023-02-13T17:37:28;5.93;;;2.67;;
23228;SDS011;11783;50.350;6.576;2023-02-13T17:39:54;4.72;;;2.45;;
23228;SDS011;11783;50.350;6.576;2023-02-13T17:42:26;4.57;;;2.30;;
23228;SDS011;11783;50.350;6.576;2023-02-13T17:44:54;5.80;;;2.50;;
23228;SDS011;11783;50.350;6.576;2023-02-13T17:47:21;4.20;;;2.40;;
23228;SDS011;11783;50.350;6.576;2023-02-13T17:49:47;6.15;;;2.85;;
23228;SDS011;11783;50.350;6.576;2023-02-13T17:52:14;4.95;;;2.90;;
23228;SDS011;11783;50.350;6.576;2023-02-13T17:54:43;5.82;;;2.60;;
23228;SDS011;11783;50.350;6.576;2023-02-13T17:57:09;5.40;;;2.90;;
23228;SDS011;11783;50.350;6.576;2023-02-13T17:59:35;6.45;;;2.58;;
23228;SDS011;11783;50.350;6.576;2023-02-13T18:02:00;8.57;;;2.92;;
23228;SDS011;11783;50.350;6.576;2023-02-13T18:04:26;6.40;;;3.00;;
23228;SDS011;11783;50.350;6.576;2023-02-13T18:06:51;4.72;;;2.85;;
23228;SDS011;11783;50.350;6.576;2023-02-13T18:09:18;5.05;;;2.60;;
23228;SDS011;11783;50.350;6.576;2023-02-13T18:11:48;4.43;;;2.70;;
23228;SDS011;11783;50.350;6.576;2023-02-13T18:14:14;3.90;;;2.40;;
23228;SDS011;11783;50.350;6.576;2023-02-13T18:16:39;4.90;;;2.50;;
23228;SDS011;11783;50.350;6.576;2023-02-13T18:19:05;5.07;;;2.88;;
23228;SDS011;11783;50.350;6.576;2023-02-13T18:21:30;7.35;;;3.05;;
23228;SDS011;11783;50.350;6.576;2023-02-13T18:23:56;6.40;;;3.05;;
23228;SDS011;11783;50.350;6.576;2023-02-13T18:26:21;6.25;;;2.83;;